Bear Creek, Louisiana
Current Conditions -  °F | °C
As of 6:35 AM on Friday 21 Nov 2014 (Local Time) from KRSN Reporting Station
Overcast Overcast  
Wind Chill: 54°   Ceiling: 8000
Heat Index: 54°   Visibility: 10mi
Dew Point: 50°   Wind: 6mph
Humidity: 87%   Direction: 180°S
Pressure: 30.26"   Gusts: NA
Location:  32.3029°N, 92.924°W
Report Text: KRSN 211235Z AUTO 18005KT 10SM OVC080 12/10 A3026 RMK AO2 T01230102
Loading
Personal Weather Stations






























Interactive Weather Map New forecast layout! Learn more

10-Day Weather Forecast

Advertisements
Track Severe Weather on mobile